createdAt,value
2022-08-07T00:00:35.856Z,10.07
2022-08-07T00:03:07.109Z,9.10
2022-08-07T00:05:37.047Z,9.15
2022-08-07T00:08:04.971Z,9.13
2022-08-07T00:10:31.922Z,8.60
2022-08-07T00:13:02.178Z,10.75
2022-08-07T00:15:38.501Z,9.93
2022-08-07T00:18:18.694Z,9.98
2022-08-07T00:20:47.724Z,8.40
2022-08-07T00:23:14.899Z,7.85
2022-08-07T00:25:51.722Z,7.90
2022-08-07T00:28:31.774Z,9.02
2022-08-07T00:31:12.416Z,9.52
2022-08-07T00:33:39.955Z,10.13
2022-08-07T00:36:07.778Z,8.50
2022-08-07T00:38:36.721Z,9.13
2022-08-07T00:41:09.986Z,8.50
2022-08-07T00:43:59.021Z,10.65
2022-08-07T00:46:28.439Z,9.02
2022-08-07T00:48:55.453Z,6.88
2022-08-07T00:51:22.335Z,7.72
2022-08-07T00:53:55.974Z,9.75
2022-08-07T00:56:23.586Z,8.50
2022-08-07T00:58:57.491Z,9.25
2022-08-07T01:01:24.669Z,8.88
2022-08-07T01:03:57.126Z,8.75
2022-08-07T01:06:28.801Z,6.40
2022-08-07T01:08:58.305Z,8.20
2022-08-07T01:12:09.828Z,8.88
2022-08-07T01:14:12.774Z,7.70
2022-08-07T01:16:47.335Z,7.03
2022-08-07T01:21:50.197Z,8.45
2022-08-07T01:24:22.293Z,7.50
2022-08-07T01:26:52.171Z,8.00
2022-08-07T01:29:23.248Z,7.53
2022-08-07T01:31:52.379Z,7.53
2022-08-07T01:34:19.713Z,10.23
2022-08-07T01:36:57.997Z,7.93
2022-08-07T01:39:40.534Z,7.97
2022-08-07T01:42:38.433Z,8.32
2022-08-07T01:45:09.822Z,9.18
2022-08-07T01:48:18.568Z,8.10
2022-08-07T01:50:31.162Z,7.82
2022-08-07T01:52:59.190Z,10.52
2022-08-07T01:55:28.700Z,7.93
2022-08-07T01:58:06.338Z,7.07
2022-08-07T02:00:51.614Z,8.57
2022-08-07T02:03:26.576Z,8.57
2022-08-07T02:06:31.577Z,8.57
2022-08-07T02:09:06.288Z,8.40
2022-08-07T02:12:03.747Z,8.00
2022-08-07T02:14:35.879Z,7.72
2022-08-07T02:17:03.994Z,7.95
2022-08-07T02:20:07.846Z,8.93
2022-08-07T02:22:20.752Z,10.18
2022-08-07T02:24:53.310Z,8.43
2022-08-07T02:27:21.925Z,8.73
2022-08-07T02:29:54.508Z,7.20
2022-08-07T02:32:29.833Z,6.80
2022-08-07T02:34:57.928Z,7.75
2022-08-07T02:37:26.974Z,7.65
2022-08-07T02:40:01.998Z,8.10
2022-08-07T02:42:41.595Z,7.95
2022-08-07T02:45:58.269Z,8.35
2022-08-07T02:47:59.138Z,7.43
2022-08-07T02:50:30.836Z,8.10
2022-08-07T02:53:03.609Z,8.98
2022-08-07T02:56:03.179Z,8.35
2022-08-07T02:58:22.899Z,7.53
2022-08-07T03:00:57.389Z,8.25
2022-08-07T03:03:29.532Z,8.25
2022-08-07T03:06:16.337Z,8.65
2022-08-07T03:08:44.464Z,8.35
2022-08-07T03:11:11.356Z,8.50
2022-08-07T03:13:49.971Z,7.40
2022-08-07T03:16:23.058Z,9.23
2022-08-07T03:18:56.417Z,7.97
2022-08-07T03:21:24.485Z,7.70
2022-08-07T03:24:17.989Z,6.22
2022-08-07T03:26:57.985Z,8.80
2022-08-07T03:29:37.885Z,8.50
2022-08-07T03:32:12.879Z,11.23
2022-08-07T03:34:47.155Z,7.45
2022-08-07T03:37:32.850Z,8.32
2022-08-07T03:40:16.451Z,7.97
2022-08-07T03:42:44.063Z,7.30
2022-08-07T03:45:12.767Z,8.43
2022-08-07T03:48:01.422Z,8.35
2022-08-07T03:50:29.078Z,8.38
2022-08-07T03:53:00.373Z,7.70
2022-08-07T03:55:57.978Z,7.55
2022-08-07T03:59:07.238Z,7.72
2022-08-07T04:01:07.631Z,7.28
2022-08-07T04:03:54.039Z,9.35
2022-08-07T04:06:37.660Z,7.40
2022-08-07T04:09:15.700Z,6.60
2022-08-07T04:12:25.747Z,6.93
2022-08-07T04:14:38.026Z,6.40
2022-08-07T04:17:19.810Z,8.40
2022-08-07T04:19:52.093Z,9.43
2022-08-07T04:22:28.933Z,7.05
2022-08-07T04:25:01.705Z,7.22
2022-08-07T04:27:36.161Z,7.07
2022-08-07T04:30:21.439Z,6.55
2022-08-07T04:33:08.289Z,8.70
2022-08-07T04:35:38.570Z,7.32
2022-08-07T04:38:11.433Z,7.50
2022-08-07T04:40:44.068Z,6.13
2022-08-07T04:44:13.118Z,7.40
2022-08-07T04:46:59.502Z,6.38
2022-08-07T04:50:03.495Z,7.72
2022-08-07T04:52:46.938Z,6.50
2022-08-07T04:58:16.700Z,6.78
2022-08-07T04:58:35.001Z,7.18
2022-08-07T05:01:20.907Z,7.43
2022-08-07T05:04:07.556Z,6.57
2022-08-07T05:09:58.766Z,8.45
2022-08-07T05:12:53.636Z,8.45
2022-08-07T05:15:26.803Z,8.88
2022-08-07T05:18:08.590Z,6.60
2022-08-07T05:20:46.885Z,6.43
2022-08-07T05:23:29.064Z,9.65
2022-08-07T05:26:15.225Z,7.05
2022-08-07T05:28:51.475Z,7.60
2022-08-07T05:31:24.105Z,7.35
2022-08-07T05:34:05.420Z,8.10
2022-08-07T05:36:39.130Z,6.22
2022-08-07T05:40:17.166Z,7.03
2022-08-07T05:42:06.375Z,8.13
2022-08-07T05:44:41.535Z,7.75
2022-08-07T05:47:38.608Z,8.57
2022-08-07T05:50:01.702Z,7.57
2022-08-07T05:52:32.722Z,7.03
2022-08-07T05:55:07.036Z,7.40
2022-08-07T05:57:41.955Z,9.82
2022-08-07T06:00:16.532Z,7.80
2022-08-07T06:05:28.221Z,8.13
2022-08-07T06:08:14.612Z,7.28
2022-08-07T06:10:51.217Z,8.23
2022-08-07T06:14:10.538Z,6.88
2022-08-07T06:16:08.007Z,8.02
2022-08-07T06:18:38.358Z,7.40
2022-08-07T06:22:16.833Z,8.98
2022-08-07T06:24:45.720Z,9.82
2022-08-07T06:26:43.300Z,7.85
2022-08-07T06:29:11.133Z,7.25
2022-08-07T06:31:49.639Z,8.77
2022-08-07T06:34:21.456Z,7.15
2022-08-07T06:36:51.949Z,9.25
2022-08-07T06:40:16.703Z,6.55
2022-08-07T06:42:34.874Z,8.38
2022-08-07T06:45:12.500Z,9.60
2022-08-07T06:47:59.013Z,9.43
2022-08-07T06:50:35.967Z,9.90
2022-08-07T06:53:04.790Z,9.68
2022-08-07T06:55:53.723Z,10.18
2022-08-07T06:58:32.214Z,10.90
2022-08-07T07:01:07.102Z,11.75
2022-08-07T07:03:47.951Z,10.65
2022-08-07T07:06:23.749Z,11.43
2022-08-07T07:08:51.100Z,9.55
2022-08-07T07:12:09.096Z,10.88
2022-08-07T07:14:04.807Z,10.43
2022-08-07T07:16:38.898Z,10.90
2022-08-07T07:19:56.513Z,10.38
2022-08-07T07:22:04.939Z,9.10
2022-08-07T07:24:39.846Z,12.27
2022-08-07T07:27:10.561Z,10.18
2022-08-07T07:30:07.540Z,8.82
2022-08-07T07:32:27.391Z,10.43
2022-08-07T07:34:56.332Z,10.35
2022-08-07T07:37:49.604Z,11.60
2022-08-07T07:40:15.688Z,11.45
2022-08-07T07:42:50.862Z,10.30
2022-08-07T07:45:19.439Z,9.13
2022-08-07T07:47:52.287Z,9.00
2022-08-07T07:50:36.038Z,7.80
2022-08-07T07:53:06.383Z,10.57
2022-08-07T07:55:57.533Z,9.45
2022-08-07T07:58:29.817Z,10.27
2022-08-07T08:00:57.637Z,8.95
2022-08-07T08:04:11.128Z,9.10
2022-08-07T08:06:13.096Z,9.07
2022-08-07T08:08:41.861Z,9.57
2022-08-07T08:11:16.100Z,11.23
2022-08-07T08:13:57.024Z,9.55
2022-08-07T08:16:35.275Z,10.43
2022-08-07T08:19:09.932Z,9.18
2022-08-07T08:22:08.188Z,10.82
2022-08-07T08:25:09.427Z,11.52
2022-08-07T08:27:56.551Z,11.52
2022-08-07T08:30:28.610Z,10.52
2022-08-07T08:33:03.737Z,11.07
2022-08-07T08:35:43.048Z,9.68
2022-08-07T08:38:18.114Z,10.52
2022-08-07T08:40:51.238Z,9.82
2022-08-07T08:43:42.031Z,9.43
2022-08-07T08:46:28.769Z,11.32
2022-08-07T08:49:14.869Z,9.88
2022-08-07T08:52:14.437Z,11.98
2022-08-07T08:55:21.103Z,12.00
2022-08-07T08:58:24.840Z,12.20
2022-08-07T09:01:19.222Z,9.55
2022-08-07T09:03:59.259Z,9.40
2022-08-07T09:06:29.654Z,12.48
2022-08-07T09:09:30.247Z,11.57
2022-08-07T09:12:30.800Z,10.20
2022-08-07T09:16:22.880Z,10.60
2022-08-07T09:18:35.003Z,12.52
2022-08-07T09:21:57.795Z,13.38
2022-08-07T09:24:33.304Z,11.10
2022-08-07T09:27:30.855Z,10.43
2022-08-07T09:30:08.017Z,10.95
2022-08-07T09:32:57.367Z,11.95
2022-08-07T09:36:03.025Z,10.05
2022-08-07T09:38:50.108Z,14.05
2022-08-07T09:42:02.994Z,12.15
2022-08-07T09:47:24.928Z,14.32
2022-08-07T09:48:11.677Z,11.88
2022-08-07T09:50:59.503Z,10.63
2022-08-07T09:53:26.699Z,12.32
2022-08-07T09:56:34.049Z,9.73
2022-08-07T09:59:21.940Z,10.50
2022-08-07T10:02:14.508Z,9.73
2022-08-07T10:04:55.021Z,8.77
2022-08-07T10:07:31.611Z,12.32
2022-08-07T10:10:23.246Z,9.98
2022-08-07T10:13:55.470Z,11.27
2022-08-07T10:16:32.186Z,9.07
2022-08-07T10:19:26.835Z,13.95
2022-08-07T10:22:24.994Z,9.90
2022-08-07T10:25:04.009Z,7.75
2022-08-07T10:28:03.064Z,8.60
2022-08-07T10:30:39.342Z,8.38
2022-08-07T10:34:06.569Z,8.00
2022-08-07T10:36:59.062Z,9.88
2022-08-07T10:39:41.910Z,8.95
2022-08-07T10:42:51.399Z,9.30
2022-08-07T10:45:58.129Z,8.80
2022-08-07T10:48:35.047Z,8.00
2022-08-07T10:51:57.423Z,10.40
2022-08-07T10:54:18.815Z,9.43
2022-08-07T10:57:22.275Z,7.82
2022-08-07T11:00:36.998Z,9.98
2022-08-07T11:03:11.298Z,9.90
2022-08-07T11:05:50.666Z,10.38
2022-08-07T11:08:18.441Z,9.10
2022-08-07T11:11:46.224Z,9.25
2022-08-07T11:15:00.288Z,10.25
2022-08-07T11:17:49.899Z,11.45
2022-08-07T11:20:36.172Z,12.48
2022-08-07T11:23:26.349Z,11.38
2022-08-07T11:26:23.282Z,12.25
2022-08-07T11:29:13.095Z,10.63
2022-08-07T11:31:58.344Z,11.02
2022-08-07T11:34:42.370Z,11.75
2022-08-07T11:37:38.159Z,10.13
2022-08-07T11:40:24.012Z,10.80
2022-08-07T11:43:06.200Z,11.52
2022-08-07T11:46:10.966Z,11.05
2022-08-07T11:49:51.392Z,9.48
2022-08-07T11:52:35.539Z,10.52
2022-08-07T11:56:09.383Z,9.43
2022-08-07T11:58:54.743Z,9.55
2022-08-07T12:01:58.708Z,9.85
2022-08-07T12:04:51.722Z,10.55
2022-08-07T12:07:38.582Z,9.43
2022-08-07T12:10:14.867Z,9.32
2022-08-07T12:13:11.503Z,10.80
2022-08-07T12:16:06.081Z,8.93
2022-08-07T12:19:10.628Z,10.35
2022-08-07T12:22:37.218Z,9.45
2022-08-07T12:26:02.761Z,10.32
2022-08-07T12:28:49.801Z,8.95
2022-08-07T12:31:52.706Z,9.32
2022-08-07T12:34:36.358Z,9.18
2022-08-07T12:37:08.775Z,9.75
2022-08-07T12:39:51.052Z,9.70
2022-08-07T12:42:27.571Z,8.93
2022-08-07T12:44:58.878Z,8.45
2022-08-07T12:47:39.717Z,7.32
2022-08-07T12:50:48.716Z,9.68
2022-08-07T12:53:21.863Z,8.30
2022-08-07T12:56:10.037Z,10.98
2022-08-07T12:58:40.303Z,7.70
2022-08-07T13:01:32.503Z,7.45
2022-08-07T13:04:34.098Z,6.95
2022-08-07T13:08:14.055Z,7.15
2022-08-07T13:10:39.391Z,7.30
2022-08-07T13:13:48.280Z,10.85
2022-08-07T13:16:55.167Z,8.35
2022-08-07T13:19:59.798Z,9.48
2022-08-07T13:22:31.022Z,10.75
2022-08-07T13:25:15.111Z,7.07
2022-08-07T13:28:12.757Z,8.40
2022-08-07T13:30:41.343Z,6.82
2022-08-07T13:34:32.696Z,7.05
2022-08-07T13:40:36.430Z,6.88
2022-08-07T13:42:48.779Z,7.50
2022-08-07T13:46:06.821Z,6.68
2022-08-07T13:48:06.202Z,7.53
2022-08-07T13:51:00.291Z,6.93
2022-08-07T13:53:23.918Z,7.40
2022-08-07T13:55:54.629Z,6.18
2022-08-07T13:58:42.796Z,8.27
2022-08-07T14:01:25.042Z,6.50
2022-08-07T14:04:07.053Z,6.35
2022-08-07T14:06:37.159Z,7.22
2022-08-07T14:09:06.396Z,9.48
2022-08-07T14:11:53.849Z,6.82
2022-08-07T14:14:55.161Z,6.25
2022-08-07T14:18:13.193Z,6.38
2022-08-07T14:20:40.130Z,6.43
2022-08-07T14:23:08.572Z,6.18
2022-08-07T14:25:39.569Z,7.38
2022-08-07T14:28:14.969Z,5.45
2022-08-07T14:30:47.167Z,6.13
2022-08-07T14:33:22.242Z,5.47
2022-08-07T14:35:50.067Z,5.97
2022-08-07T14:38:31.397Z,5.07
2022-08-07T14:41:12.444Z,5.78
2022-08-07T14:46:32.036Z,6.47
2022-08-07T14:49:17.417Z,7.78
2022-08-07T14:52:03.138Z,7.97
2022-08-07T14:57:21.111Z,5.03
2022-08-07T15:00:04.557Z,5.72
2022-08-07T15:02:34.537Z,6.18
2022-08-07T15:05:03.052Z,7.32
2022-08-07T15:07:47.327Z,6.95
2022-08-07T15:10:26.616Z,6.82
2022-08-07T15:13:11.570Z,8.38
2022-08-07T15:15:40.756Z,5.97
2022-08-07T15:18:34.069Z,7.05
2022-08-07T15:21:58.884Z,7.28
2022-08-07T15:25:15.069Z,5.82
2022-08-07T15:27:11.996Z,8.48
2022-08-07T15:30:04.603Z,5.70
2022-08-07T15:32:39.939Z,5.60
2022-08-07T15:36:00.528Z,6.85
2022-08-07T15:41:24.074Z,5.82
2022-08-07T15:44:10.707Z,5.53
2022-08-07T15:46:49.916Z,5.60
2022-08-07T15:54:36.149Z,6.80
2022-08-07T15:57:28.347Z,7.30
2022-08-07T16:00:06.671Z,5.75
2022-08-07T16:02:46.554Z,5.25
2022-08-07T16:05:19.250Z,4.63
2022-08-07T16:08:31.123Z,5.18
2022-08-07T16:10:41.257Z,5.45
2022-08-07T16:13:58.098Z,5.07
2022-08-07T16:16:47.884Z,4.63
2022-08-07T16:19:16.937Z,4.47
2022-08-07T16:22:07.277Z,5.88
2022-08-07T16:24:52.862Z,4.57
2022-08-07T16:27:47.445Z,5.00
2022-08-07T16:30:30.817Z,5.50
2022-08-07T16:34:03.156Z,5.28
2022-08-07T16:36:31.344Z,4.50
2022-08-07T16:39:48.613Z,4.30
2022-08-07T16:42:41.602Z,4.20
2022-08-07T16:46:34.638Z,6.20
2022-08-07T16:48:53.763Z,5.25
2022-08-07T16:51:54.111Z,4.60
2022-08-07T16:54:32.543Z,6.15
2022-08-07T16:57:06.234Z,4.57
2022-08-07T17:00:10.950Z,4.18
2022-08-07T17:03:11.340Z,4.85
2022-08-07T17:06:19.159Z,4.05
2022-08-07T17:09:10.797Z,4.60
2022-08-07T17:12:03.921Z,4.18
2022-08-07T17:14:37.710Z,6.40
2022-08-07T17:17:09.836Z,5.07
2022-08-07T17:20:02.088Z,4.70
2022-08-07T17:25:20.019Z,4.88
2022-08-07T17:28:12.414Z,5.18
2022-08-07T17:31:15.583Z,3.88
2022-08-07T17:34:15.256Z,4.25
2022-08-07T17:36:48.963Z,4.28
2022-08-07T17:39:53.014Z,4.35
2022-08-07T17:42:27.100Z,4.30
2022-08-07T17:44:57.231Z,4.80
2022-08-07T17:47:42.609Z,4.03
2022-08-07T17:50:30.335Z,4.82
2022-08-07T17:53:06.063Z,6.15
2022-08-07T17:56:01.360Z,5.07
2022-08-07T17:58:50.171Z,4.00
2022-08-07T18:01:40.911Z,4.00
2022-08-07T18:04:24.693Z,5.07
2022-08-07T18:07:24.704Z,4.75
2022-08-07T18:10:32.450Z,4.72
2022-08-07T18:13:20.607Z,4.63
2022-08-07T18:16:07.359Z,5.07
2022-08-07T18:21:01.390Z,5.22
2022-08-07T18:22:02.733Z,5.18
2022-08-07T18:24:37.954Z,3.88
2022-08-07T18:27:25.407Z,4.25
2022-08-07T18:30:32.977Z,5.00
2022-08-07T18:33:12.134Z,4.40
2022-08-07T18:35:51.875Z,3.78
2022-08-07T18:38:58.896Z,4.90
2022-08-07T18:41:46.013Z,5.25
2022-08-07T18:44:31.961Z,4.60
2022-08-07T18:47:22.459Z,4.68
2022-08-07T18:50:39.534Z,4.55
2022-08-07T18:53:36.996Z,3.97
2022-08-07T18:56:33.873Z,5.63
2022-08-07T18:59:46.823Z,4.82
2022-08-07T19:02:36.467Z,5.28
2022-08-07T19:06:02.202Z,7.45
2022-08-07T19:08:31.328Z,4.80
2022-08-07T19:11:02.535Z,6.10
2022-08-07T19:14:00.735Z,5.25
2022-08-07T19:17:04.718Z,5.65
2022-08-07T19:19:56.950Z,5.55
2022-08-07T19:22:47.168Z,5.95
2022-08-07T19:26:23.122Z,4.40
2022-08-07T19:28:56.736Z,4.15
2022-08-07T19:31:39.652Z,5.72
2022-08-07T19:33:46.727Z,5.10
2022-08-07T19:36:27.750Z,4.93
2022-08-07T19:38:57.175Z,4.80
2022-08-07T19:41:44.138Z,5.47
2022-08-07T19:44:21.459Z,4.78
2022-08-07T19:46:55.734Z,4.93
2022-08-07T19:49:57.097Z,4.70
2022-08-07T19:52:27.482Z,5.47
2022-08-07T19:54:58.251Z,5.80
2022-08-07T19:58:00.289Z,4.70
2022-08-07T20:03:35.079Z,5.00
2022-08-07T20:06:04.539Z,7.72
2022-08-07T20:08:36.790Z,5.60
2022-08-07T20:11:09.611Z,6.03
2022-08-07T20:13:57.152Z,5.40
2022-08-07T20:16:35.189Z,6.03
2022-08-07T20:19:05.294Z,4.65
2022-08-07T20:21:46.762Z,7.47
2022-08-07T20:24:28.684Z,6.05
2022-08-07T20:29:49.574Z,6.38
2022-08-07T20:32:25.262Z,5.28
2022-08-07T20:34:54.528Z,6.03
2022-08-07T20:37:33.738Z,5.47
2022-08-07T20:40:05.085Z,5.82
2022-08-07T20:42:56.272Z,6.50
2022-08-07T20:45:32.928Z,6.00
2022-08-07T20:48:11.499Z,7.18
2022-08-07T20:51:01.365Z,5.75
2022-08-07T20:54:02.348Z,6.50
2022-08-07T20:56:16.166Z,5.65
2022-08-07T20:58:44.383Z,7.10
2022-08-07T21:01:19.603Z,6.68
2022-08-07T21:04:18.628Z,6.45
2022-08-07T21:06:38.090Z,6.70
2022-08-07T21:09:14.029Z,7.38
2022-08-07T21:14:32.719Z,7.78
2022-08-07T21:18:02.034Z,6.47
2022-08-07T21:20:04.824Z,5.63
2022-08-07T21:22:45.142Z,6.25
2022-08-07T21:25:42.596Z,7.25
2022-08-07T21:31:15.133Z,5.82
2022-08-07T21:33:50.941Z,6.77
2022-08-07T21:36:32.111Z,5.63
2022-08-07T21:39:45.251Z,7.22
2022-08-07T21:42:46.630Z,6.47
2022-08-07T21:46:03.795Z,6.63
2022-08-07T21:48:42.660Z,8.88
2022-08-07T21:51:24.912Z,6.82
2022-08-07T21:53:54.123Z,9.25
2022-08-07T21:56:47.108Z,10.65
2022-08-07T22:00:05.207Z,4.72
2022-08-07T22:02:43.506Z,8.40
2022-08-07T22:05:22.137Z,6.80
2022-08-07T22:08:10.271Z,12.07
2022-08-07T22:10:37.672Z,6.68
2022-08-07T22:13:13.608Z,6.85
2022-08-07T22:16:44.838Z,6.43
2022-08-07T22:19:07.481Z,7.55
2022-08-07T22:22:27.591Z,6.97
2022-08-07T22:25:11.110Z,6.63
2022-08-07T22:28:20.129Z,5.93
2022-08-07T22:30:59.472Z,6.90
2022-08-07T22:33:52.766Z,8.25
2022-08-07T22:37:02.395Z,6.13
2022-08-07T22:39:53.024Z,6.07
2022-08-07T22:42:25.795Z,6.20
2022-08-07T22:44:58.749Z,10.88
2022-08-07T22:48:04.225Z,7.57
2022-08-07T22:51:04.404Z,8.48
2022-08-07T22:54:07.582Z,5.75
2022-08-07T22:57:07.260Z,6.45
2022-08-07T23:00:13.198Z,8.23
2022-08-07T23:02:48.302Z,6.85
2022-08-07T23:06:10.153Z,5.95
2022-08-07T23:08:54.540Z,6.82
2022-08-07T23:11:44.315Z,8.63
2022-08-07T23:14:40.333Z,7.07
2022-08-07T23:17:42.284Z,6.45
2022-08-07T23:20:51.202Z,7.18
2022-08-07T23:24:06.588Z,6.40
2022-08-07T23:27:12.946Z,6.95
2022-08-07T23:30:37.523Z,6.93
2022-08-07T23:34:33.303Z,7.65
2022-08-07T23:36:37.237Z,6.75
2022-08-07T23:39:09.835Z,8.73
2022-08-07T23:42:05.153Z,8.45
2022-08-07T23:45:03.358Z,7.10
2022-08-07T23:48:02.685Z,8.02
2022-08-07T23:50:54.441Z,6.85
2022-08-07T23:53:49.965Z,8.93
2022-08-07T23:56:53.467Z,7.03
